HST,Max TemperatureF,Mean TemperatureF,Min TemperatureF,Max Dew PointF,MeanDew PointF,Min DewpointF,Max Humidity, Mean Humidity, Min Humidity, Max Sea Level PressureIn, Mean Sea Level PressureIn, Min Sea Level PressureIn, Max VisibilityMiles, Mean VisibilityMiles, Min VisibilityMiles, Max Wind SpeedMPH, Mean Wind SpeedMPH, Max Gust SpeedMPH,PrecipitationIn, CloudCover, Events, WindDirDegrees
2014-1-1,81,76,70,66,59,47,81,55,33,29.97,29.92,29.87,10,10,10,9,4,,0.00,1,,360
2014-1-2,82,76,70,66,57,46,76,52,27,29.91,29.85,29.78,10,10,10,20,8,25,0.00,1,,149
2014-1-3,78,74,69,68,63,54,94,74,48,29.88,29.83,29.77,10,7,1,20,12,28,0.63,7,Rain,112
2014-1-4,82,75,68,22,6,-40,12,8,4,29.92,29.87,29.81,10,10,9,23,13,23,0.09,4,Rain,15
2014-1-5,81,74,68,62,18,-18,78,17,4,29.96,29.91,29.83,10,10,10,29,10,33,0.07,1,,7
2014-1-6,82,73,64,54,49,44,58,40,30,30.02,29.97,29.91,10,10,10,29,16,34,0.00,0,,11
2014-1-7,84,75,66,61,51,40,60,45,22,30.04,30.00,29.94,10,10,10,26,19,34,0.00,0,,20
2014-1-8,82,74,66,63,57,50,73,57,39,29.99,29.96,29.89,10,10,5,25,15,32,0.01,2,Rain,30
2014-1-9,80,73,66,63,61,59,81,67,52,30.01,29.95,29.90,10,10,10,10,6,,0.00,0,,58
2014-1-10,82,74,66,67,61,58,76,64,50,29.99,29.93,29.85,10,10,10,15,8,,0.00,0,,56
2014-1-11,84,76,68,69,64,58,78,68,52,29.96,29.91,29.87,10,10,10,17,8,,0.00,0,,35
2014-1-12,82,77,72,70,67,62,83,73,60,29.99,29.94,29.91,10,10,10,14,6,,0.00,1,,183
2014-1-13,81,76,72,70,67,64,83,74,65,29.98,29.93,29.87,10,10,10,10,6,,0.00,2,,345
2014-1-14,82,77,72,69,66,62,82,71,58,29.94,29.90,29.84,10,10,10,18,7,,0.00,1,,157
2014-1-15,82,76,69,66,63,59,73,66,54,29.95,29.90,29.85,10,10,10,13,7,,0.00,0,,141
2014-1-16,81,76,71,68,66,61,84,73,58,29.99,29.94,29.89,10,10,9,12,5,,0.06,3,Rain,330
2014-1-17,81,76,70,68,66,62,81,70,60,30.03,29.99,29.96,10,10,10,10,7,,0.00,0,,4
2014-1-18,81,76,70,68,66,63,81,72,62,30.04,29.99,29.93,10,10,10,8,5,,0.00,0,,163
2014-1-19,82,76,70,68,64,59,76,67,58,29.97,29.92,29.89,10,10,10,12,7,,0.00,0,,72
2014-1-20,81,75,69,66,63,60,78,66,56,29.96,29.91,29.86,10,10,10,8,6,,0.00,0,,176
2014-1-21,82,76,70,68,63,59,76,64,52,29.93,29.88,29.85,10,10,10,21,10,24,0.00,3,,161
2014-1-22,77,72,68,70,65,49,94,77,47,29.90,29.85,29.81,10,7,0,25,13,37,1.21,6,Fog-Rain,142
2014-1-23,79,70,61,61,55,44,68,56,37,29.94,29.88,29.81,10,10,10,20,12,21,0.00,4,,83
2014-1-24,78,72,66,61,60,57,76,64,54,29.93,29.88,29.81,10,10,10,9,5,,0.00,6,,121
2014-1-25,81,74,66,63,59,56,73,61,52,29.90,29.85,29.80,10,10,9,15,7,,0.00,5,,183
2014-1-26,80,76,72,62,58,55,64,53,45,29.92,29.89,29.82,10,10,10,10,6,,0.00,5,,172
2014-1-27,81,76,70,70,66,61,82,72,56,29.96,29.91,29.87,10,10,10,25,8,33,0.00,2,,15
2014-1-28,75,70,66,66,61,58,81,71,55,30.03,29.96,29.90,10,10,4,28,13,44,0.48,5,Rain,37
2014-1-29,80,73,66,67,61,56,79,66,55,30.00,29.96,29.93,10,10,10,14,7,,0.00,1,,109
2014-1-30,82,74,66,66,63,57,81,68,56,29.97,29.91,29.83,10,10,10,17,7,,0.00,2,,42
2014-1-31,82,76,71,68,65,58,76,66,52,29.92,29.86,29.82,10,10,10,14,8,,0.00,2,,354